Time;durP1;ratioP1;P1;durP2;ratioP2;P2;SDS_P1;SDS_P2;PMS_P1;PMS_P2;Temp;Humidity;BMP_temperature;BMP_pressure;BME280_temperature;BME280_humidity;BME280_pressure;Samples;Min_cycle;Max_cycle;Signal;HPM_P1;HPM_P2
2021/09/05 00:01:54;;;;;;;55.70;36.88;;;;;;;;;;5092835;28;20016;-58
2021/09/05 00:04:19;;;;;;;52.70;35.80;;;;;;;;;;5093473;28;20502;-58
2021/09/05 00:06:44;;;;;;;63.65;37.38;;;;;;;;;;5092504;28;20024;-58
2021/09/05 00:09:09;;;;;;;62.42;37.72;;;;;;;;;;5092698;28;20110;-57
2021/09/05 00:11:35;;;;;;;56.47;37.75;;;;;;;;;;5092186;28;20012;-58
2021/09/05 00:14:00;;;;;;;52.60;35.72;;;;;;;;;;5092907;28;20095;-58
2021/09/05 00:16:25;;;;;;;46.60;33.15;;;;;;;;;;5092619;28;20117;-57
2021/09/05 00:18:50;;;;;;;52.28;36.22;;;;;;;;;;5093054;28;20016;-56
2021/09/05 00:21:16;;;;;;;50.15;35.83;;;;;;;;;;5092920;28;20450;-59
2021/09/05 00:23:41;;;;;;;52.00;33.75;;;;;;;;;;5093344;28;20028;-58
2021/09/05 00:26:07;;;;;;;56.10;36.30;;;;;;;;;;5079361;28;20020;-56
2021/09/05 00:28:32;;;;;;;57.90;36.10;;;;;;;;;;5086090;28;20508;-57
2021/09/05 00:30:57;;;;;;;48.85;33.72;;;;;;;;;;5091196;28;20019;-56
2021/09/05 00:33:23;;;;;;;53.38;34.72;;;;;;;;;;5092561;28;20043;-57
2021/09/05 00:35:48;;;;;;;49.20;33.47;;;;;;;;;;5089782;28;20016;-57
2021/09/05 00:38:13;;;;;;;54.78;36.22;;;;;;;;;;5080931;28;20107;-58
2021/09/05 00:40:38;;;;;;;50.60;34.22;;;;;;;;;;5092641;28;20035;-58
2021/09/05 00:43:04;;;;;;;55.85;37.58;;;;;;;;;;5091972;28;20437;-58
2021/09/05 00:45:29;;;;;;;50.58;35.28;;;;;;;;;;5092619;28;20012;-58
2021/09/05 00:47:54;;;;;;;47.72;33.92;;;;;;;;;;5092259;28;20016;-56
2021/09/05 00:50:19;;;;;;;48.15;33.38;;;;;;;;;;5092560;28;20447;-58
2021/09/05 00:52:45;;;;;;;50.28;33.33;;;;;;;;;;5092323;28;20020;-56
2021/09/05 00:55:11;;;;;;;45.45;31.80;;;;;;;;;;5092515;28;20024;-56
2021/09/05 00:57:36;;;;;;;50.90;34.67;;;;;;;;;;5086252;28;20024;-55
2021/09/05 01:00:02;;;;;;;43.97;32.95;;;;;;;;;;5082508;28;20036;-58
2021/09/05 01:02:27;;;;;;;45.72;33.13;;;;;;;;;;5091986;28;20027;-57
2021/09/05 01:04:52;;;;;;;44.05;32.38;;;;;;;;;;5092427;28;20016;-54
2021/09/05 01:07:18;;;;;;;48.78;34.33;;;;;;;;;;5096536;28;20026;-55
2021/09/05 01:09:43;;;;;;;41.22;30.90;;;;;;;;;;5092911;28;20039;-59
2021/09/05 01:12:09;;;;;;;47.70;33.13;;;;;;;;;;5091903;28;20107;-58
2021/09/05 01:14:34;;;;;;;44.65;31.90;;;;;;;;;;5092305;28;20016;-57
2021/09/05 01:16:59;;;;;;;43.72;32.70;;;;;;;;;;5091813;28;20028;-57
2021/09/05 01:19:25;;;;;;;47.22;33.83;;;;;;;;;;5092247;28;20052;-58
2021/09/05 01:21:51;;;;;;;44.83;33.10;;;;;;;;;;5091917;28;20032;-58
2021/09/05 01:24:16;;;;;;;41.40;30.65;;;;;;;;;;5091822;28;20051;-58
2021/09/05 01:26:44;;;;;;;41.30;30.92;;;;;;;;;;5095679;28;20047;-58
2021/09/05 01:29:10;;;;;;;45.13;32.92;;;;;;;;;;5092839;28;20052;-58
2021/09/05 01:31:39;;;;;;;43.00;31.63;;;;;;;;;;5091626;28;20026;-58
2021/09/05 01:34:05;;;;;;;46.72;33.08;;;;;;;;;;5091870;28;20030;-57
2021/09/05 01:36:30;;;;;;;45.47;32.42;;;;;;;;;;5091667;28;20559;-58
2021/09/05 01:38:55;;;;;;;41.40;31.05;;;;;;;;;;5092309;28;20519;-58
2021/09/05 01:41:20;;;;;;;44.63;31.95;;;;;;;;;;5091340;28;20107;-58
2021/09/05 01:43:45;;;;;;;50.05;35.60;;;;;;;;;;5073054;28;20024;-58
2021/09/05 01:46:11;;;;;;;46.65;32.10;;;;;;;;;;5091119;28;20020;-57
2021/09/05 01:48:36;;;;;;;51.53;34.22;;;;;;;;;;5091952;28;20017;-57
2021/09/05 01:51:01;;;;;;;50.28;33.95;;;;;;;;;;5092492;28;20047;-58
2021/09/05 01:53:26;;;;;;;53.97;33.75;;;;;;;;;;5091575;28;20024;-57
2021/09/05 01:55:52;;;;;;;49.03;31.42;;;;;;;;;;5091821;28;20039;-57
2021/09/05 01:58:18;;;;;;;48.20;33.17;;;;;;;;;;5088861;28;20519;-58
2021/09/05 02:00:43;;;;;;;51.03;35.55;;;;;;;;;;5091748;28;20032;-58
2021/09/05 02:03:09;;;;;;;46.88;32.30;;;;;;;;;;5091050;28;20023;-58
2021/09/05 02:05:34;;;;;;;45.60;31.85;;;;;;;;;;5091689;28;20379;-59
2021/09/05 02:07:59;;;;;;;42.63;30.02;;;;;;;;;;5091363;28;20043;-57
2021/09/05 02:10:25;;;;;;;42.08;29.65;;;;;;;;;;5091765;28;20012;-57
2021/09/05 02:12:50;;;;;;;38.97;28.85;;;;;;;;;;5091507;28;20028;-57
2021/09/05 02:15:15;;;;;;;46.25;32.25;;;;;;;;;;5095557;28;20051;-58
2021/09/05 02:17:41;;;;;;;47.30;32.53;;;;;;;;;;5106103;28;20081;-57
2021/09/05 02:20:06;;;;;;;46.95;33.50;;;;;;;;;;5091801;28;20517;-57
2021/09/05 02:22:31;;;;;;;44.85;31.10;;;;;;;;;;5073324;28;20066;-58
2021/09/05 02:24:56;;;;;;;43.22;30.60;;;;;;;;;;5093964;28;20020;-58
2021/09/05 02:27:22;;;;;;;47.30;31.80;;;;;;;;;;5091757;28;20019;-58
2021/09/05 02:29:47;;;;;;;45.28;30.98;;;;;;;;;;5091599;28;20410;-57
2021/09/05 02:32:12;;;;;;;43.80;30.80;;;;;;;;;;5090578;28;20056;-56
2021/09/05 02:34:37;;;;;;;42.03;30.45;;;;;;;;;;5091149;28;20015;-57
2021/09/05 02:37:03;;;;;;;45.95;32.03;;;;;;;;;;5091385;28;20065;-58
2021/09/05 02:39:28;;;;;;;45.60;33.50;;;;;;;;;;5090907;28;20024;-57
2021/09/05 02:41:53;;;;;;;49.17;33.35;;;;;;;;;;5100789;28;20031;-57
2021/09/05 02:44:18;;;;;;;49.08;32.92;;;;;;;;;;5072851;28;20031;-58
2021/09/05 02:46:44;;;;;;;51.95;33.67;;;;;;;;;;5091181;28;20023;-58
2021/09/05 02:49:09;;;;;;;43.38;32.60;;;;;;;;;;5091553;28;20008;-58
2021/09/05 02:51:35;;;;;;;49.90;34.45;;;;;;;;;;5091527;28;20031;-56
2021/09/05 02:54:00;;;;;;;47.28;31.75;;;;;;;;;;5092000;28;20022;-56
2021/09/05 02:56:25;;;;;;;43.15;31.40;;;;;;;;;;5095014;28;20038;-57
2021/09/05 02:58:50;;;;;;;45.15;32.70;;;;;;;;;;5099139;28;20077;-57
2021/09/05 03:01:15;;;;;;;46.05;32.20;;;;;;;;;;5107350;28;20233;-58
2021/09/05 03:03:41;;;;;;;44.85;31.73;;;;;;;;;;5100890;28;20094;-57
2021/09/05 03:06:06;;;;;;;40.63;30.02;;;;;;;;;;5109039;28;20023;-57
2021/09/05 03:08:31;;;;;;;41.47;31.17;;;;;;;;;;5115098;28;20388;-58
2021/09/05 03:10:56;;;;;;;44.53;31.98;;;;;;;;;;5114200;28;20107;-57
2021/09/05 03:13:22;;;;;;;48.47;34.78;;;;;;;;;;5115224;28;20055;-57
2021/09/05 03:15:47;;;;;;;39.63;30.05;;;;;;;;;;5094639;28;20453;-57
2021/09/05 03:18:12;;;;;;;41.38;29.88;;;;;;;;;;5094219;28;20471;-56
2021/09/05 03:20:37;;;;;;;45.47;31.77;;;;;;;;;;5102682;28;20102;-58
2021/09/05 03:23:02;;;;;;;43.28;30.08;;;;;;;;;;5094160;28;20016;-57
2021/09/05 03:25:28;;;;;;;41.85;29.80;;;;;;;;;;5094187;28;20020;-55
2021/09/05 03:27:53;;;;;;;41.83;28.58;;;;;;;;;;5093960;28;20367;-56
2021/09/05 03:30:18;;;;;;;42.67;30.85;;;;;;;;;;5093660;28;20023;-56
2021/09/05 03:32:43;;;;;;;41.58;29.95;;;;;;;;;;5093814;28;20039;-59
2021/09/05 03:35:09;;;;;;;40.88;28.27;;;;;;;;;;5094031;28;20024;-57
2021/09/05 03:37:34;;;;;;;41.97;29.52;;;;;;;;;;5093932;28;20360;-57
2021/09/05 03:39:59;;;;;;;38.35;28.90;;;;;;;;;;5094391;28;20023;-57
2021/09/05 03:42:24;;;;;;;43.85;32.15;;;;;;;;;;5094021;28;20451;-54
2021/09/05 03:44:49;;;;;;;45.30;31.23;;;;;;;;;;5083201;28;20016;-56
2021/09/05 03:47:15;;;;;;;43.58;30.98;;;;;;;;;;5093774;28;20363;-55
2021/09/05 03:49:40;;;;;;;45.95;31.55;;;;;;;;;;5093977;28;20020;-57
2021/09/05 03:52:05;;;;;;;46.45;30.17;;;;;;;;;;5075848;28;20489;-56
2021/09/05 03:54:30;;;;;;;39.70;29.60;;;;;;;;;;5093623;28;20411;-58
2021/09/05 03:56:56;;;;;;;40.25;28.40;;;;;;;;;;5099723;28;20102;-56
2021/09/05 03:59:21;;;;;;;40.90;29.42;;;;;;;;;;5107780;28;20028;-55
2021/09/05 04:01:47;;;;;;;42.08;29.05;;;;;;;;;;5093371;28;20035;-58
2021/09/05 04:04:12;;;;;;;42.00;29.65;;;;;;;;;;5103088;28;20034;-57
2021/09/05 04:06:37;;;;;;;39.92;28.05;;;;;;;;;;5097563;28;20016;-57
2021/09/05 04:09:09;;;;;;;40.40;29.17;;;;;;;;;;5093805;28;20016;-59
2021/09/05 04:11:35;;;;;;;39.08;28.23;;;;;;;;;;5093352;28;20458;-57
2021/09/05 04:14:00;;;;;;;40.08;28.40;;;;;;;;;;5093209;28;20020;-58
2021/09/05 04:16:25;;;;;;;37.35;26.48;;;;;;;;;;5093111;28;20030;-57
2021/09/05 04:18:51;;;;;;;37.65;27.67;;;;;;;;;;5098922;28;20008;-58
2021/09/05 04:21:16;;;;;;;39.92;27.77;;;;;;;;;;5093291;28;20119;-58
2021/09/05 04:23:41;;;;;;;38.85;28.60;;;;;;;;;;5093199;28;20024;-57
2021/09/05 04:26:06;;;;;;;39.55;28.58;;;;;;;;;;5074962;28;20020;-58
2021/09/05 04:28:31;;;;;;;43.78;29.83;;;;;;;;;;5099430;28;20490;-56
2021/09/05 04:30:57;;;;;;;41.47;30.23;;;;;;;;;;5106120;28;20102;-57
2021/09/05 04:33:22;;;;;;;41.78;31.13;;;;;;;;;;5102944;28;20751;-56
2021/09/05 04:35:47;;;;;;;41.60;29.67;;;;;;;;;;5092869;28;20024;-57
2021/09/05 04:38:12;;;;;;;46.70;31.10;;;;;;;;;;5098491;28;20023;-57
2021/09/05 04:40:37;;;;;;;44.35;29.85;;;;;;;;;;5113247;28;20026;-58
2021/09/05 04:43:03;;;;;;;44.23;28.90;;;;;;;;;;5113044;28;20511;-58
2021/09/05 04:45:28;;;;;;;38.90;29.42;;;;;;;;;;5104061;28;20261;-56
2021/09/05 04:47:53;;;;;;;37.88;28.38;;;;;;;;;;5092938;28;20039;-56
2021/09/05 04:50:18;;;;;;;44.50;28.70;;;;;;;;;;5093203;28;20050;-57
2021/09/05 04:52:43;;;;;;;39.70;28.13;;;;;;;;;;5092738;28;20032;-56
2021/09/05 04:55:09;;;;;;;38.15;28.38;;;;;;;;;;5092528;28;20016;-57
2021/09/05 04:57:34;;;;;;;40.90;29.48;;;;;;;;;;5095267;28;20020;-56
2021/09/05 04:59:59;;;;;;;44.05;29.42;;;;;;;;;;5092991;28;20115;-57
2021/09/05 05:02:24;;;;;;;45.45;31.10;;;;;;;;;;5092305;28;20020;-56
2021/09/05 05:04:49;;;;;;;47.53;31.63;;;;;;;;;;5091858;28;20478;-57
2021/09/05 05:07:15;;;;;;;38.13;28.15;;;;;;;;;;5092649;28;20023;-56
2021/09/05 05:09:43;;;;;;;43.10;29.33;;;;;;;;;;5099596;28;20027;-57
2021/09/05 05:12:10;;;;;;;41.20;29.13;;;;;;;;;;5092189;28;20099;-57
2021/09/05 05:14:35;;;;;;;42.30;29.45;;;;;;;;;;5091895;28;20062;-58
2021/09/05 05:17:00;;;;;;;44.10;29.55;;;;;;;;;;5091974;28;20016;-58
2021/09/05 05:19:26;;;;;;;43.30;30.90;;;;;;;;;;5107278;28;20469;-59
2021/09/05 05:21:51;;;;;;;43.63;29.00;;;;;;;;;;5098567;28;20055;-57
2021/09/05 05:24:16;;;;;;;44.35;29.17;;;;;;;;;;5092312;28;20016;-58
2021/09/05 05:26:41;;;;;;;42.25;28.92;;;;;;;;;;5092029;28;20099;-57
2021/09/05 05:29:06;;;;;;;41.38;28.38;;;;;;;;;;5104146;28;20067;-58
2021/09/05 05:31:32;;;;;;;46.50;30.60;;;;;;;;;;5112233;28;20095;-58
2021/09/05 05:33:57;;;;;;;42.75;30.23;;;;;;;;;;5098672;28;20050;-58
2021/09/05 05:36:22;;;;;;;42.00;30.10;;;;;;;;;;5091637;28;20404;-57
2021/09/05 05:38:47;;;;;;;45.33;30.42;;;;;;;;;;5091980;28;20482;-58
2021/09/05 05:41:14;;;;;;;43.28;30.25;;;;;;;;;;5111623;28;20038;-58
2021/09/05 05:43:39;;;;;;;38.40;28.08;;;;;;;;;;5112177;28;20024;-57
2021/09/05 05:46:04;;;;;;;44.00;30.50;;;;;;;;;;5095939;28;20026;-58
2021/09/05 05:48:29;;;;;;;47.47;31.27;;;;;;;;;;5104372;28;20394;-58
2021/09/05 05:50:57;;;;;;;40.53;28.10;;;;;;;;;;5112401;28;20016;-58
2021/09/05 05:53:22;;;;;;;40.58;28.15;;;;;;;;;;5097790;28;20020;-58
2021/09/05 05:55:47;;;;;;;38.47;26.98;;;;;;;;;;5092390;28;20024;-58
2021/09/05 05:58:13;;;;;;;43.88;29.98;;;;;;;;;;5093967;28;20429;-58
2021/09/05 06:00:39;;;;;;;45.78;30.88;;;;;;;;;;5092021;28;20516;-58
2021/09/05 06:03:05;;;;;;;42.65;29.17;;;;;;;;;;5091310;28;20019;-57
2021/09/05 06:05:30;;;;;;;41.08;28.90;;;;;;;;;;5090862;28;20020;-59
2021/09/05 06:07:56;;;;;;;42.58;30.08;;;;;;;;;;5091766;28;20386;-59
2021/09/05 06:10:21;;;;;;;43.17;30.20;;;;;;;;;;5091882;28;20458;-57
2021/09/05 06:12:46;;;;;;;40.50;29.33;;;;;;;;;;5091702;28;20028;-58
2021/09/05 06:15:11;;;;;;;38.67;29.00;;;;;;;;;;5073235;28;20166;-58
2021/09/05 06:17:36;;;;;;;43.80;30.02;;;;;;;;;;5087300;28;20035;-58
2021/09/05 06:20:02;;;;;;;40.03;28.75;;;;;;;;;;5092006;28;20047;-58
2021/09/05 06:22:28;;;;;;;38.47;27.63;;;;;;;;;;5091239;28;20040;-56
2021/09/05 06:24:53;;;;;;;40.75;29.17;;;;;;;;;;5091560;28;20028;-57
2021/09/05 06:27:18;;;;;;;41.58;29.20;;;;;;;;;;5091399;28;20039;-57
2021/09/05 06:29:43;;;;;;;45.20;31.15;;;;;;;;;;5092783;28;20106;-57
2021/09/05 06:32:09;;;;;;;45.22;30.73;;;;;;;;;;5095068;28;20020;-57
2021/09/05 06:34:34;;;;;;;41.05;28.33;;;;;;;;;;5094306;28;20112;-58
2021/09/05 06:36:59;;;;;;;40.53;28.52;;;;;;;;;;5093952;28;20016;-58
2021/09/05 06:39:25;;;;;;;37.85;27.48;;;;;;;;;;5095042;28;20027;-57
2021/09/05 06:41:50;;;;;;;37.85;26.23;;;;;;;;;;5095042;28;20024;-55
2021/09/05 06:44:16;;;;;;;40.10;28.25;;;;;;;;;;5095158;28;20044;-58
2021/09/05 06:46:41;;;;;;;37.13;27.00;;;;;;;;;;5093482;28;20436;-56
2021/09/05 06:49:07;;;;;;;36.50;28.10;;;;;;;;;;5094016;28;20028;-54
2021/09/05 06:51:32;;;;;;;39.33;28.60;;;;;;;;;;5094828;28;20047;-57
2021/09/05 06:53:57;;;;;;;38.20;28.00;;;;;;;;;;5079682;28;20043;-55
2021/09/05 06:56:22;;;;;;;39.22;28.48;;;;;;;;;;5091090;28;20067;-57
2021/09/05 06:58:47;;;;;;;41.05;28.73;;;;;;;;;;5094323;28;20020;-57
2021/09/05 07:01:13;;;;;;;36.83;26.48;;;;;;;;;;5093379;28;20023;-57
2021/09/05 07:03:38;;;;;;;37.28;27.45;;;;;;;;;;5066832;28;20039;-59
2021/09/05 07:06:05;;;;;;;35.90;27.38;;;;;;;;;;5093966;28;20035;-56
2021/09/05 07:08:30;;;;;;;39.08;28.25;;;;;;;;;;5088790;28;20016;-57
2021/09/05 07:10:55;;;;;;;35.95;27.17;;;;;;;;;;5074218;28;20017;-57
2021/09/05 07:13:20;;;;;;;37.40;26.83;;;;;;;;;;5083897;28;20047;-58
2021/09/05 07:15:45;;;;;;;37.95;28.15;;;;;;;;;;5094674;28;20027;-56
2021/09/05 07:18:10;;;;;;;34.72;26.48;;;;;;;;;;5093321;28;20471;-58
2021/09/05 07:20:36;;;;;;;38.77;27.70;;;;;;;;;;5094250;28;20444;-58
2021/09/05 07:23:01;;;;;;;39.53;29.30;;;;;;;;;;5093664;28;20270;-59
2021/09/05 07:25:27;;;;;;;37.70;28.10;;;;;;;;;;5098126;28;20016;-56
2021/09/05 07:27:52;;;;;;;36.65;27.20;;;;;;;;;;5093527;28;20615;-55
2021/09/05 07:30:18;;;;;;;33.53;25.20;;;;;;;;;;5093693;28;20115;-57
2021/09/05 07:32:43;;;;;;;36.72;28.45;;;;;;;;;;5093099;28;20765;-58
2021/09/05 07:35:09;;;;;;;32.70;26.02;;;;;;;;;;5094050;28;20028;-57
2021/09/05 07:37:34;;;;;;;35.70;25.65;;;;;;;;;;5093333;28;20020;-56
2021/09/05 07:40:00;;;;;;;35.47;26.17;;;;;;;;;;5092769;28;20016;-58
2021/09/05 07:42:25;;;;;;;35.72;26.13;;;;;;;;;;5085916;28;20059;-58
2021/09/05 07:44:50;;;;;;;33.88;26.15;;;;;;;;;;5093915;28;20074;-58
2021/09/05 07:47:16;;;;;;;33.83;25.85;;;;;;;;;;5092565;28;20017;-59
2021/09/05 07:49:41;;;;;;;35.28;25.52;;;;;;;;;;5093731;28;20410;-53
2021/09/05 07:52:06;;;;;;;32.15;24.08;;;;;;;;;;5093443;28;20024;-58
2021/09/05 07:54:31;;;;;;;33.42;24.85;;;;;;;;;;5093048;28;20478;-58
2021/09/05 07:56:56;;;;;;;33.47;25.30;;;;;;;;;;5093636;28;20595;-58
2021/09/05 07:59:22;;;;;;;34.17;23.95;;;;;;;;;;5092218;28;20020;-57
2021/09/05 08:01:47;;;;;;;32.67;25.35;;;;;;;;;;5093050;28;20016;-58
2021/09/05 08:04:12;;;;;;;34.17;25.13;;;;;;;;;;5093545;28;20016;-57
2021/09/05 08:06:37;;;;;;;34.63;24.83;;;;;;;;;;5093271;28;20101;-57
2021/09/05 08:09:02;;;;;;;31.50;25.67;;;;;;;;;;5093107;28;20111;-56
2021/09/05 08:11:28;;;;;;;32.10;23.92;;;;;;;;;;5078431;28;20028;-56
2021/09/05 08:13:53;;;;;;;31.00;25.20;;;;;;;;;;5092065;28;20020;-58
2021/09/05 08:16:18;;;;;;;30.73;25.13;;;;;;;;;;5092742;28;20386;-58
2021/09/05 08:18:44;;;;;;;31.55;25.38;;;;;;;;;;5093091;28;20106;-56
2021/09/05 08:21:09;;;;;;;31.95;23.98;;;;;;;;;;5092570;28;20093;-57
2021/09/05 08:23:36;;;;;;;33.58;25.25;;;;;;;;;;5092904;28;20017;-56
2021/09/05 08:26:02;;;;;;;32.78;26.02;;;;;;;;;;5095587;28;20397;-57
2021/09/05 08:28:27;;;;;;;32.63;23.85;;;;;;;;;;5091933;28;20111;-56
2021/09/05 08:30:52;;;;;;;32.53;24.58;;;;;;;;;;5093131;28;20081;-58
2021/09/05 08:33:18;;;;;;;30.63;23.77;;;;;;;;;;5092503;28;20497;-58
2021/09/05 08:35:44;;;;;;;28.90;22.50;;;;;;;;;;5092419;28;20024;-57
2021/09/05 08:38:09;;;;;;;29.60;23.80;;;;;;;;;;5092599;28;20076;-57
2021/09/05 08:40:39;;;;;;;32.40;25.17;;;;;;;;;;5091770;28;20058;-57
2021/09/05 08:43:04;;;;;;;27.58;22.20;;;;;;;;;;5092284;28;20024;-57
2021/09/05 08:45:30;;;;;;;30.48;24.40;;;;;;;;;;5092241;28;20470;-58
2021/09/05 08:47:55;;;;;;;27.00;22.52;;;;;;;;;;5091959;28;20039;-56
2021/09/05 08:50:24;;;;;;;29.35;21.98;;;;;;;;;;5092491;28;20490;-59
2021/09/05 08:52:49;;;;;;;28.15;21.52;;;;;;;;;;5091363;28;20020;-59
2021/09/05 08:55:14;;;;;;;27.27;22.75;;;;;;;;;;5092224;28;20027;-58
2021/09/05 08:57:39;;;;;;;29.43;23.03;;;;;;;;;;5092513;28;20020;-58
2021/09/05 09:00:05;;;;;;;28.37;22.70;;;;;;;;;;5092461;28;20626;-57
2021/09/05 09:02:47;;;;;;;28.38;22.73;;;;;;;;;;5096108;28;20295;-58
2021/09/05 09:05:12;;;;;;;26.35;22.08;;;;;;;;;;5112574;28;20016;-59
2021/09/05 09:07:47;;;;;;;29.58;23.35;;;;;;;;;;5095485;28;20378;-57
2021/09/05 09:10:13;;;;;;;26.88;22.33;;;;;;;;;;5092027;28;20103;-58
2021/09/05 09:12:43;;;;;;;29.98;22.73;;;;;;;;;;5076779;28;20423;-59
2021/09/05 09:15:18;;;;;;;28.83;23.63;;;;;;;;;;5084830;28;20024;-57
2021/09/05 09:17:44;;;;;;;26.30;21.60;;;;;;;;;;5091586;28;20024;-58
2021/09/05 09:20:10;;;;;;;29.20;23.52;;;;;;;;;;5091896;28;20520;-58
2021/09/05 09:22:35;;;;;;;28.33;23.35;;;;;;;;;;5091881;28;20020;-59
2021/09/05 09:25:00;;;;;;;25.90;21.70;;;;;;;;;;5091691;28;20028;-58
2021/09/05 09:27:25;;;;;;;28.87;23.10;;;;;;;;;;5092012;28;20063;-57
2021/09/05 09:29:55;;;;;;;25.30;21.17;;;;;;;;;;5087907;28;20634;-57
2021/09/05 09:32:23;;;;;;;26.10;21.80;;;;;;;;;;5090521;28;20509;-58
2021/09/05 09:34:50;;;;;;;26.60;20.80;;;;;;;;;;5096213;28;20404;-56
2021/09/05 09:37:22;;;;;;;26.52;21.90;;;;;;;;;;5096345;28;20376;-58
2021/09/05 09:39:47;;;;;;;24.20;19.77;;;;;;;;;;5090632;28;20023;-56
2021/09/05 09:42:29;;;;;;;27.67;22.77;;;;;;;;;;5099637;28;20070;-57
2021/09/05 09:44:55;;;;;;;24.02;21.42;;;;;;;;;;5091555;28;20070;-57
2021/09/05 09:47:20;;;;;;;26.52;21.23;;;;;;;;;;5091241;28;20016;-58
2021/09/05 09:49:46;;;;;;;28.10;22.15;;;;;;;;;;5091125;28;20028;-58
2021/09/05 09:52:11;;;;;;;26.58;22.02;;;;;;;;;;5090957;28;20065;-58
2021/09/05 09:54:37;;;;;;;26.85;22.45;;;;;;;;;;5086541;28;20023;-56
2021/09/05 09:57:02;;;;;;;25.10;20.80;;;;;;;;;;5071844;28;20025;-56
2021/09/05 09:59:28;;;;;;;29.13;22.52;;;;;;;;;;5091602;28;20103;-56
2021/09/05 10:01:53;;;;;;;30.25;23.10;;;;;;;;;;5090932;28;20024;-58
2021/09/05 10:04:18;;;;;;;27.83;21.27;;;;;;;;;;5093154;28;20008;-57
2021/09/05 10:06:44;;;;;;;23.20;19.67;;;;;;;;;;5095679;28;20077;-58
2021/09/05 10:09:09;;;;;;;28.27;22.35;;;;;;;;;;5095588;28;20265;-57
2021/09/05 10:11:35;;;;;;;26.30;20.75;;;;;;;;;;5095224;28;20102;-57
2021/09/05 10:14:01;;;;;;;23.38;20.73;;;;;;;;;;5095124;28;20493;-58
2021/09/05 10:16:26;;;;;;;24.98;20.45;;;;;;;;;;5106981;28;20028;-58
2021/09/05 10:18:54;;;;;;;24.95;20.35;;;;;;;;;;5095289;28;20024;-58
2021/09/05 10:21:20;;;;;;;24.15;20.70;;;;;;;;;;5094435;28;20054;-58
2021/09/05 10:23:50;;;;;;;25.10;21.80;;;;;;;;;;5083222;28;20024;-57
2021/09/05 10:26:16;;;;;;;24.85;20.13;;;;;;;;;;5095085;28;20012;-58
2021/09/05 10:28:42;;;;;;;20.58;18.38;;;;;;;;;;5095204;28;20052;-57
2021/09/05 10:31:08;;;;;;;21.17;18.88;;;;;;;;;;5095145;28;20059;-58
2021/09/05 10:33:38;;;;;;;19.35;17.15;;;;;;;;;;5094651;28;20092;-58
2021/09/05 10:36:03;;;;;;;23.02;18.88;;;;;;;;;;5095493;28;20479;-58
2021/09/05 10:38:31;;;;;;;20.50;18.33;;;;;;;;;;5101494;28;20039;-58
2021/09/05 10:40:56;;;;;;;22.52;19.13;;;;;;;;;;5088954;28;20054;-58
2021/09/05 10:43:23;;;;;;;21.63;19.03;;;;;;;;;;5112990;28;20024;-58
2021/09/05 10:45:58;;;;;;;20.92;18.67;;;;;;;;;;5115549;28;20324;-58
2021/09/05 10:48:36;;;;;;;21.17;19.02;;;;;;;;;;5099380;28;20020;-58
2021/09/05 10:51:04;;;;;;;21.85;19.58;;;;;;;;;;5074690;28;20398;-58
2021/09/05 10:53:34;;;;;;;21.95;19.58;;;;;;;;;;5074144;28;20020;-59
2021/09/05 10:56:06;;;;;;;20.20;18.08;;;;;;;;;;5083567;28;20466;-58
2021/09/05 10:58:37;;;;;;;23.20;20.70;;;;;;;;;;5094869;28;20063;-57
2021/09/05 11:01:03;;;;;;;21.27;19.17;;;;;;;;;;5096609;28;20076;-57
2021/09/05 11:03:29;;;;;;;19.60;17.70;;;;;;;;;;5114502;28;20092;-58
2021/09/05 11:06:17;;;;;;;19.42;17.58;;;;;;;;;;5114748;28;20473;-57
2021/09/05 11:08:42;;;;;;;19.55;17.45;;;;;;;;;;4994489;28;20184;-57
2021/09/05 11:11:08;;;;;;;19.63;17.70;;;;;;;;;;4999689;28;20041;-58
2021/09/05 11:13:45;;;;;;;19.45;17.55;;;;;;;;;;4994353;28;20038;-58
2021/09/05 11:16:16;;;;;;;19.55;17.75;;;;;;;;;;4992530;28;20041;-59
2021/09/05 11:18:42;;;;;;;20.40;18.40;;;;;;;;;;4994820;28;20033;-59
2021/09/05 11:21:20;;;;;;;19.02;17.23;;;;;;;;;;4992255;28;20465;-57
2021/09/05 11:23:46;;;;;;;19.77;17.98;;;;;;;;;;4992090;28;20026;-57
2021/09/05 11:26:11;;;;;;;19.07;17.37;;;;;;;;;;4992700;28;20034;-58
2021/09/05 11:28:36;;;;;;;18.00;16.27;;;;;;;;;;4992247;28;20050;-58
2021/09/05 11:31:03;;;;;;;17.67;15.97;;;;;;;;;;4988628;28;20517;-58
2021/09/05 11:33:29;;;;;;;17.42;15.73;;;;;;;;;;4983771;28;20151;-58
2021/09/05 11:35:54;;;;;;;16.90;15.35;;;;;;;;;;4992451;28;20034;-59
2021/09/05 11:38:20;;;;;;;18.27;16.50;;;;;;;;;;4991914;28;20561;-59
2021/09/05 11:40:48;;;;;;;17.23;15.63;;;;;;;;;;5002161;28;20502;-58
2021/09/05 11:43:26;;;;;;;17.10;15.55;;;;;;;;;;4992311;28;20029;-58
2021/09/05 11:45:51;;;;;;;16.38;14.98;;;;;;;;;;5049917;28;20409;-57
2021/09/05 11:48:17;;;;;;;17.03;15.63;;;;;;;;;;5093768;28;20024;-58
2021/09/05 11:50:42;;;;;;;16.00;14.57;;;;;;;;;;5094346;28;20019;-57
2021/09/05 11:53:17;;;;;;;16.67;15.17;;;;;;;;;;5093768;28;20017;-56
2021/09/05 11:55:50;;;;;;;16.20;14.80;;;;;;;;;;5112316;28;20020;-58
2021/09/05 11:58:15;;;;;;;15.02;13.73;;;;;;;;;;5095829;28;20032;-56
2021/09/05 12:00:40;;;;;;;14.47;13.17;;;;;;;;;;5093571;28;20161;-57
2021/09/05 12:03:12;;;;;;;15.77;14.37;;;;;;;;;;5093237;28;20179;-57
2021/09/05 12:05:38;;;;;;;14.68;13.32;;;;;;;;;;5093543;28;20035;-57
2021/09/05 12:08:03;;;;;;;15.07;13.77;;;;;;;;;;5093288;28;20020;-57
2021/09/05 12:10:29;;;;;;;15.15;13.93;;;;;;;;;;5092561;28;20359;-58
2021/09/05 12:13:05;;;;;;;15.07;13.88;;;;;;;;;;5102719;28;20020;-58
2021/09/05 12:15:34;;;;;;;15.65;14.25;;;;;;;;;;5105341;28;20012;-57
2021/09/05 12:17:59;;;;;;;15.25;13.95;;;;;;;;;;5113259;28;20015;-56
2021/09/05 12:20:25;;;;;;;15.57;14.18;;;;;;;;;;5100457;28;20027;-56
2021/09/05 12:22:51;;;;;;;15.68;14.43;;;;;;;;;;5093317;28;20016;-58
2021/09/05 12:25:19;;;;;;;15.85;14.45;;;;;;;;;;5093244;28;20027;-56
2021/09/05 12:27:57;;;;;;;16.80;15.38;;;;;;;;;;5092247;28;20016;-57
2021/09/05 12:30:23;;;;;;;13.77;12.68;;;;;;;;;;5092439;28;20035;-57
2021/09/05 12:33:03;;;;;;;15.30;13.90;;;;;;;;;;5092256;28;20020;-57
2021/09/05 12:35:30;;;;;;;14.88;13.65;;;;;;;;;;5092247;28;20032;-57
2021/09/05 12:38:11;;;;;;;15.73;14.43;;;;;;;;;;5092932;28;20497;-58
2021/09/05 12:40:43;;;;;;;16.15;14.68;;;;;;;;;;5092403;28;20693;-57
2021/09/05 12:43:10;;;;;;;16.88;15.38;;;;;;;;;;5092173;28;20531;-57
2021/09/05 12:45:35;;;;;;;16.33;14.90;;;;;;;;;;5092673;28;20027;-58
2021/09/05 12:48:14;;;;;;;18.38;16.77;;;;;;;;;;5092291;28;20019;-58
2021/09/05 12:50:39;;;;;;;15.77;14.35;;;;;;;;;;5092862;28;20516;-57
2021/09/05 12:53:17;;;;;;;15.43;14.05;;;;;;;;;;5092748;28;20024;-59
2021/09/05 12:55:45;;;;;;;18.20;16.67;;;;;;;;;;5092426;28;20032;-58
2021/09/05 12:58:10;;;;;;;17.75;16.25;;;;;;;;;;5092481;28;20095;-58
2021/09/05 13:00:37;;;;;;;15.82;14.55;;;;;;;;;;5093864;28;20103;-57
2021/09/05 13:03:02;;;;;;;15.00;13.57;;;;;;;;;;5111820;28;20084;-57
2021/09/05 13:05:28;;;;;;;16.30;14.85;;;;;;;;;;5112382;28;20031;-56
2021/09/05 13:07:53;;;;;;;16.83;15.45;;;;;;;;;;5096956;28;20020;-58
2021/09/05 13:10:18;;;;;;;16.03;14.63;;;;;;;;;;5090154;28;20016;-58
2021/09/05 13:12:43;;;;;;;15.57;14.17;;;;;;;;;;5107408;28;20491;-57
2021/09/05 13:15:09;;;;;;;15.63;14.33;;;;;;;;;;5092130;28;20055;-58
2021/09/05 13:17:36;;;;;;;17.27;15.95;;;;;;;;;;5091686;28;20031;-57
2021/09/05 13:20:01;;;;;;;17.23;15.63;;;;;;;;;;5091837;28;20046;-57
2021/09/05 13:22:26;;;;;;;16.13;14.73;;;;;;;;;;5092437;28;20024;-58
2021/09/05 13:24:51;;;;;;;16.47;15.07;;;;;;;;;;5080689;28;20466;-58
2021/09/05 13:27:16;;;;;;;17.33;15.90;;;;;;;;;;5101727;28;20111;-58
2021/09/05 13:29:42;;;;;;;14.87;13.67;;;;;;;;;;5091313;28;20123;-58
2021/09/05 13:32:07;;;;;;;15.20;13.90;;;;;;;;;;5091204;28;20024;-56
2021/09/05 13:34:32;;;;;;;15.25;13.98;;;;;;;;;;5091946;28;20019;-57
2021/09/05 13:36:57;;;;;;;15.70;14.10;;;;;;;;;;5101883;28;20023;-58
2021/09/05 13:39:22;;;;;;;17.33;15.93;;;;;;;;;;5097976;28;20012;-58
2021/09/05 13:41:48;;;;;;;15.97;14.57;;;;;;;;;;5091215;28;20016;-58
2021/09/05 13:44:13;;;;;;;16.47;15.07;;;;;;;;;;5091471;28;20024;-57
2021/09/05 13:46:38;;;;;;;17.23;15.83;;;;;;;;;;5091602;28;20023;-58
2021/09/05 13:49:03;;;;;;;15.57;14.27;;;;;;;;;;5092052;28;20058;-57
2021/09/05 13:51:28;;;;;;;16.47;15.10;;;;;;;;;;5091306;28;20020;-57
2021/09/05 13:53:54;;;;;;;17.63;16.07;;;;;;;;;;5091504;28;20265;-57
2021/09/05 13:56:19;;;;;;;15.77;14.30;;;;;;;;;;5091843;28;20023;-58
2021/09/05 13:58:44;;;;;;;16.53;15.13;;;;;;;;;;5091878;28;20028;-58
2021/09/05 14:01:09;;;;;;;16.83;15.53;;;;;;;;;;5089045;28;20610;-57
2021/09/05 14:03:35;;;;;;;16.70;15.30;;;;;;;;;;5076078;28;20284;-57
2021/09/05 14:06:00;;;;;;;15.63;14.33;;;;;;;;;;5091792;28;20012;-58
2021/09/05 14:08:25;;;;;;;17.73;16.03;;;;;;;;;;5090745;28;20099;-56
2021/09/05 14:10:50;;;;;;;17.20;15.70;;;;;;;;;;5091463;28;20020;-57